createdAt,value
2023-02-26T00:01:55.037Z,43.02
2023-02-26T00:04:21.328Z,43.47
2023-02-26T00:06:47.725Z,43.52
2023-02-26T00:09:14.059Z,42.41
2023-02-26T00:11:40.427Z,42.64
2023-02-26T00:14:06.746Z,42.73
2023-02-26T00:16:33.172Z,42.33
2023-02-26T00:18:59.539Z,42.64
2023-02-26T00:21:25.871Z,42.67
2023-02-26T00:23:52.182Z,42.92
2023-02-26T00:26:18.530Z,42.99
2023-02-26T00:28:44.917Z,42.64
2023-02-26T00:31:11.804Z,42.59
2023-02-26T00:33:38.094Z,42.62
2023-02-26T00:36:04.474Z,42.92
2023-02-26T00:38:30.824Z,43.09
2023-02-26T00:40:57.162Z,43.67
2023-02-26T00:43:23.487Z,43.77
2023-02-26T00:45:49.878Z,43.47
2023-02-26T00:48:16.529Z,43.65
2023-02-26T00:50:42.899Z,44.02
2023-02-26T00:53:09.262Z,43.81
2023-02-26T00:55:35.652Z,43.93
2023-02-26T00:58:02.241Z,44.38
2023-02-26T01:00:28.563Z,44.50
2023-02-26T01:02:54.871Z,44.79
2023-02-26T01:05:21.273Z,44.98
2023-02-26T01:07:47.627Z,44.92
2023-02-26T01:10:13.998Z,42.48
2023-02-26T01:12:40.360Z,42.83
2023-02-26T01:15:06.730Z,41.52
2023-02-26T01:17:33.091Z,42.27
2023-02-26T01:19:59.591Z,42.32
2023-02-26T01:22:25.943Z,41.60
2023-02-26T01:24:52.328Z,41.81
2023-02-26T01:27:18.668Z,41.15
2023-02-26T01:29:45.011Z,41.75
2023-02-26T01:32:11.512Z,41.69
2023-02-26T01:34:37.767Z,41.61
2023-02-26T01:37:04.149Z,41.71
2023-02-26T01:39:30.515Z,41.44
2023-02-26T01:41:56.978Z,41.58
2023-02-26T01:44:23.354Z,41.88
2023-02-26T01:46:49.814Z,42.07
2023-02-26T01:49:16.084Z,41.92
2023-02-26T01:51:42.462Z,41.73
2023-02-26T01:54:08.836Z,41.71
2023-02-26T01:56:35.195Z,41.62
2023-02-26T01:59:01.504Z,41.88
2023-02-26T02:01:27.898Z,42.03
2023-02-26T02:03:54.215Z,42.18
2023-02-26T02:06:20.611Z,42.32
2023-02-26T02:08:46.935Z,42.25
2023-02-26T02:11:13.311Z,42.16
2023-02-26T02:13:39.664Z,42.05
2023-02-26T02:16:06.104Z,41.27
2023-02-26T02:18:32.375Z,40.29
2023-02-26T02:20:58.803Z,40.30
2023-02-26T02:23:25.161Z,40.46
2023-02-26T02:25:51.490Z,40.72
2023-02-26T02:28:17.860Z,40.56
2023-02-26T02:30:44.253Z,40.25
2023-02-26T02:33:10.565Z,40.16
2023-02-26T02:35:36.956Z,38.83
2023-02-26T02:38:03.346Z,39.04
2023-02-26T02:40:29.685Z,38.81
2023-02-26T02:42:56.055Z,38.75
2023-02-26T02:45:22.424Z,39.12
2023-02-26T02:47:48.739Z,38.95
2023-02-26T02:50:15.118Z,38.76
2023-02-26T02:52:41.481Z,38.58
2023-02-26T02:55:07.852Z,38.76
2023-02-26T02:57:34.210Z,38.89
2023-02-26T03:00:00.550Z,39.15
2023-02-26T03:02:26.965Z,39.38
2023-02-26T03:04:53.233Z,39.44
2023-02-26T03:07:19.609Z,39.39
2023-02-26T03:09:45.978Z,39.31
2023-02-26T03:12:12.373Z,39.16
2023-02-26T03:14:38.708Z,39.08
2023-02-26T03:17:05.027Z,38.53
2023-02-26T03:19:31.452Z,38.57
2023-02-26T03:21:57.776Z,38.16
2023-02-26T03:24:24.160Z,37.93
2023-02-26T03:26:50.471Z,37.92
2023-02-26T03:29:16.808Z,38.09
2023-02-26T03:31:43.199Z,37.76
2023-02-26T03:34:09.518Z,37.50
2023-02-26T03:36:35.876Z,37.26
2023-02-26T03:39:02.248Z,37.24
2023-02-26T03:41:28.567Z,36.89
2023-02-26T03:43:54.920Z,37.28
2023-02-26T03:46:21.310Z,37.54
2023-02-26T03:48:47.643Z,37.79
2023-02-26T03:51:13.982Z,38.09
2023-02-26T03:53:40.316Z,37.95
2023-02-26T03:56:06.725Z,37.76
2023-02-26T03:58:33.061Z,37.62
2023-02-26T04:00:59.415Z,37.56
2023-02-26T04:03:25.764Z,37.41
2023-02-26T04:05:52.127Z,37.56
2023-02-26T04:08:18.513Z,37.79
2023-02-26T04:10:44.864Z,37.99
2023-02-26T04:13:11.244Z,37.86
2023-02-26T04:15:37.556Z,38.01
2023-02-26T04:18:04.159Z,38.30
2023-02-26T04:20:30.524Z,38.50
2023-02-26T04:22:56.905Z,38.47
2023-02-26T04:25:23.264Z,38.52
2023-02-26T04:27:49.594Z,38.70
2023-02-26T04:30:15.984Z,38.54
2023-02-26T04:32:42.273Z,38.57
2023-02-26T04:35:08.595Z,38.74
2023-02-26T04:37:34.939Z,38.18
2023-02-26T04:40:01.349Z,37.46
2023-02-26T04:42:27.736Z,37.36
2023-02-26T04:44:54.037Z,37.34
2023-02-26T04:47:20.469Z,37.65
2023-02-26T04:49:46.823Z,38.27
2023-02-26T04:52:13.214Z,38.90
2023-02-26T04:54:39.599Z,39.50
2023-02-26T04:57:05.937Z,40.72
2023-02-26T04:59:32.381Z,41.10
2023-02-26T05:01:58.791Z,41.48
2023-02-26T05:04:25.116Z,41.88
2023-02-26T05:06:51.412Z,42.08
2023-02-26T05:09:17.754Z,42.22
2023-02-26T05:11:44.141Z,42.61
2023-02-26T05:14:10.455Z,42.79
2023-02-26T05:16:36.894Z,43.10
2023-02-26T05:19:03.257Z,43.15
2023-02-26T05:21:29.626Z,43.02
2023-02-26T05:23:55.944Z,43.07
2023-02-26T05:26:22.347Z,43.06
2023-02-26T05:28:48.643Z,43.20
2023-02-26T05:31:15.107Z,43.25
2023-02-26T05:33:41.384Z,43.22
2023-02-26T05:36:07.796Z,43.35
2023-02-26T05:38:34.128Z,43.13
2023-02-26T05:41:00.505Z,42.94
2023-02-26T05:43:26.824Z,42.82
2023-02-26T05:45:53.208Z,42.63
2023-02-26T05:48:19.510Z,42.54
2023-02-26T05:50:45.938Z,41.88
2023-02-26T05:53:12.252Z,41.48
2023-02-26T05:55:38.593Z,41.13
2023-02-26T05:58:04.934Z,40.88
2023-02-26T06:00:31.313Z,40.98
2023-02-26T06:02:57.700Z,41.05
2023-02-26T06:05:24.069Z,41.20
2023-02-26T06:07:50.433Z,41.17
2023-02-26T06:10:16.796Z,41.08
2023-02-26T06:12:43.166Z,40.99
2023-02-26T06:15:09.614Z,40.40
2023-02-26T06:17:35.976Z,39.83
2023-02-26T06:20:02.416Z,37.61
2023-02-26T06:22:28.778Z,37.48
2023-02-26T06:24:55.171Z,38.01
2023-02-26T06:27:21.510Z,38.00
2023-02-26T06:29:47.848Z,37.60
2023-02-26T06:32:14.437Z,37.46
2023-02-26T06:34:40.625Z,37.71
2023-02-26T06:37:06.947Z,37.53
2023-02-26T06:39:33.344Z,37.72
2023-02-26T06:41:59.669Z,37.28
2023-02-26T06:44:26.450Z,37.02
2023-02-26T06:46:52.811Z,36.05
2023-02-26T06:49:19.157Z,36.31
2023-02-26T06:51:45.520Z,36.06
2023-02-26T06:54:11.941Z,35.13
2023-02-26T06:56:38.256Z,35.33
2023-02-26T06:59:04.598Z,34.70
2023-02-26T07:01:31.156Z,33.35
2023-02-26T07:03:57.439Z,33.29
2023-02-26T07:06:27.790Z,33.26
2023-02-26T07:08:50.157Z,32.57
2023-02-26T07:11:16.486Z,31.90
2023-02-26T07:13:42.911Z,31.82
2023-02-26T07:16:09.275Z,31.31
2023-02-26T07:18:35.627Z,31.32
2023-02-26T07:21:01.939Z,31.42
2023-02-26T07:23:28.347Z,30.74
2023-02-26T07:25:54.692Z,30.62
2023-02-26T07:28:21.207Z,31.15
2023-02-26T07:30:47.646Z,30.53
2023-02-26T07:33:14.304Z,30.22
2023-02-26T07:35:40.710Z,30.53
2023-02-26T07:38:07.677Z,30.78
2023-02-26T07:40:34.031Z,30.54
2023-02-26T07:43:00.954Z,30.19
2023-02-26T07:45:27.300Z,30.36
2023-02-26T07:47:53.654Z,30.82
2023-02-26T07:50:20.028Z,30.37
2023-02-26T07:52:46.406Z,30.30
2023-02-26T07:55:12.765Z,30.36
2023-02-26T07:57:40.498Z,30.18
2023-02-26T08:00:09.470Z,30.11
2023-02-26T08:02:33.216Z,30.23
2023-02-26T08:04:59.547Z,30.25
2023-02-26T08:07:25.894Z,30.37
2023-02-26T08:09:52.500Z,29.88
2023-02-26T08:12:18.834Z,29.69
2023-02-26T08:14:45.184Z,29.50
2023-02-26T08:17:11.921Z,29.62
2023-02-26T08:19:38.457Z,29.38
2023-02-26T08:22:04.837Z,29.25
2023-02-26T08:24:31.506Z,29.33
2023-02-26T08:26:57.883Z,29.25
2023-02-26T08:29:24.370Z,28.75
2023-02-26T08:31:50.915Z,28.53
2023-02-26T08:34:17.166Z,28.42
2023-02-26T08:36:43.540Z,28.51
2023-02-26T08:39:09.930Z,28.78
2023-02-26T08:41:36.287Z,28.54
2023-02-26T08:44:02.769Z,29.27
2023-02-26T08:46:29.640Z,29.48
2023-02-26T08:48:55.556Z,28.92
2023-02-26T08:51:21.943Z,28.51
2023-02-26T08:53:48.302Z,28.80
2023-02-26T08:56:14.691Z,28.71
2023-02-26T08:58:41.022Z,28.91
2023-02-26T09:01:07.364Z,28.83
2023-02-26T09:03:33.912Z,28.92
2023-02-26T09:06:00.332Z,28.52
2023-02-26T09:08:26.954Z,28.49
2023-02-26T09:10:53.342Z,28.74
2023-02-26T09:13:19.657Z,29.07
2023-02-26T09:15:46.118Z,29.07
2023-02-26T09:18:12.515Z,29.01
2023-02-26T09:20:39.018Z,28.91
2023-02-26T09:23:05.395Z,28.66
2023-02-26T09:25:31.818Z,28.53
2023-02-26T09:27:58.988Z,28.05
2023-02-26T09:30:24.517Z,27.27
2023-02-26T09:32:51.620Z,27.07
2023-02-26T09:35:18.238Z,26.97
2023-02-26T09:37:44.830Z,26.87
2023-02-26T09:40:11.214Z,27.22
2023-02-26T09:42:37.527Z,27.41
2023-02-26T09:45:03.909Z,26.89
2023-02-26T09:47:30.256Z,26.83
2023-02-26T09:49:56.589Z,27.27
2023-02-26T09:52:22.946Z,26.80
2023-02-26T09:54:49.346Z,26.60
2023-02-26T09:57:15.655Z,26.45
2023-02-26T09:59:42.046Z,25.93
2023-02-26T10:02:08.475Z,25.69
2023-02-26T10:04:34.891Z,25.25
2023-02-26T10:07:01.131Z,25.07
2023-02-26T10:09:27.489Z,24.89
2023-02-26T10:11:53.841Z,24.60
2023-02-26T10:14:20.173Z,23.34
2023-02-26T10:16:46.673Z,24.12
2023-02-26T10:19:12.925Z,24.51
2023-02-26T10:21:39.274Z,23.84
2023-02-26T10:24:05.662Z,24.16
2023-02-26T10:26:32.133Z,23.24
2023-02-26T10:28:58.473Z,23.54
2023-02-26T10:31:25.218Z,22.98
2023-02-26T10:33:51.223Z,22.89
2023-02-26T10:36:17.951Z,23.60
2023-02-26T10:38:44.275Z,23.16
2023-02-26T10:41:10.644Z,23.79
2023-02-26T10:43:37.044Z,23.51
2023-02-26T10:46:03.499Z,23.10
2023-02-26T10:48:29.812Z,22.87
2023-02-26T10:50:56.228Z,23.57
2023-02-26T10:53:22.810Z,24.50
2023-02-26T10:55:49.150Z,24.63
2023-02-26T10:58:15.488Z,24.21
2023-02-26T11:00:41.825Z,24.72
2023-02-26T11:03:08.177Z,24.29
2023-02-26T11:05:34.633Z,24.62
2023-02-26T11:08:01.027Z,25.61
2023-02-26T11:10:27.446Z,25.81
2023-02-26T11:12:53.819Z,26.16
2023-02-26T11:15:20.122Z,26.02
2023-02-26T11:17:46.468Z,26.46
2023-02-26T11:20:12.815Z,27.04
2023-02-26T11:22:39.144Z,26.99
2023-02-26T11:25:05.520Z,26.95
2023-02-26T11:27:31.917Z,27.18
2023-02-26T11:29:59.283Z,27.72
2023-02-26T11:32:25.979Z,27.61
2023-02-26T11:34:52.162Z,27.76
2023-02-26T11:37:18.476Z,28.20
2023-02-26T11:39:44.835Z,28.37
2023-02-26T11:42:11.164Z,28.50
2023-02-26T11:44:37.471Z,28.60
2023-02-26T11:47:03.819Z,28.64
2023-02-26T11:49:30.192Z,28.53
2023-02-26T11:51:56.649Z,29.17
2023-02-26T11:54:22.958Z,29.22
2023-02-26T11:56:49.572Z,28.78
2023-02-26T11:59:15.953Z,29.21
2023-02-26T12:01:42.260Z,29.44
2023-02-26T12:04:08.650Z,29.43
2023-02-26T12:06:35.180Z,28.64
2023-02-26T12:09:01.561Z,28.59
2023-02-26T12:11:28.424Z,28.50
2023-02-26T12:13:54.299Z,28.30
2023-02-26T12:16:20.669Z,28.43
2023-02-26T12:18:46.975Z,28.05
2023-02-26T12:21:13.337Z,28.48
2023-02-26T12:23:39.686Z,28.78
2023-02-26T12:26:06.125Z,28.84
2023-02-26T12:28:32.512Z,29.48
2023-02-26T12:30:59.707Z,29.90
2023-02-26T12:33:26.253Z,29.97
2023-02-26T12:35:52.614Z,29.82
2023-02-26T12:38:19.008Z,30.15
2023-02-26T12:40:45.366Z,30.12
2023-02-26T12:43:11.725Z,29.98
2023-02-26T12:45:38.069Z,29.83
2023-02-26T12:48:04.405Z,29.51
2023-02-26T12:50:30.809Z,29.73
2023-02-26T12:52:57.177Z,30.47
2023-02-26T12:55:23.500Z,31.48
2023-02-26T12:57:50.032Z,32.00
2023-02-26T13:00:16.403Z,32.30
2023-02-26T13:02:42.809Z,32.72
2023-02-26T13:05:09.109Z,33.34
2023-02-26T13:07:35.462Z,33.05
2023-02-26T13:10:01.787Z,32.58
2023-02-26T13:12:28.239Z,32.78
2023-02-26T13:14:54.559Z,32.44
2023-02-26T13:17:20.900Z,32.60
2023-02-26T13:19:47.252Z,33.06
2023-02-26T13:22:13.593Z,33.44
2023-02-26T13:24:39.947Z,33.83
2023-02-26T13:27:06.342Z,33.75
2023-02-26T13:29:32.683Z,33.78
2023-02-26T13:31:59.215Z,33.40
2023-02-26T13:34:25.356Z,32.83
2023-02-26T13:36:51.719Z,32.73
2023-02-26T13:39:18.064Z,32.95
2023-02-26T13:41:44.444Z,32.70
2023-02-26T13:44:13.744Z,32.50
2023-02-26T13:46:40.084Z,32.45
2023-02-26T13:49:06.405Z,32.15
2023-02-26T13:51:32.802Z,32.29
2023-02-26T13:53:59.161Z,32.08
2023-02-26T13:56:25.507Z,32.46
2023-02-26T13:58:51.876Z,32.41
2023-02-26T14:01:18.302Z,32.66
2023-02-26T14:03:44.582Z,32.41
2023-02-26T14:06:10.995Z,32.53
2023-02-26T14:08:37.329Z,32.58
2023-02-26T14:11:03.733Z,32.24
2023-02-26T14:13:30.131Z,32.31
2023-02-26T14:15:56.474Z,31.72
2023-02-26T14:18:22.836Z,31.97
2023-02-26T14:20:49.222Z,31.86
2023-02-26T14:23:15.581Z,31.48
2023-02-26T14:25:41.978Z,31.57
2023-02-26T14:28:08.289Z,31.74
2023-02-26T14:30:34.704Z,31.92
2023-02-26T14:33:01.018Z,31.78
2023-02-26T14:35:27.363Z,31.72
2023-02-26T14:37:53.784Z,31.79
2023-02-26T14:40:20.142Z,32.15
2023-02-26T14:42:46.457Z,32.56
2023-02-26T14:45:12.905Z,32.89
2023-02-26T14:47:39.288Z,32.89
2023-02-26T14:50:05.604Z,33.04
2023-02-26T14:52:31.960Z,32.25
2023-02-26T14:54:58.352Z,32.12
2023-02-26T14:57:24.846Z,31.88
2023-02-26T14:59:51.212Z,31.87
2023-02-26T15:02:17.717Z,31.85
2023-02-26T15:04:43.979Z,33.99
2023-02-26T15:07:10.351Z,34.82
2023-02-26T15:09:36.693Z,35.13
2023-02-26T15:12:03.044Z,35.59
2023-02-26T15:14:29.455Z,35.18
2023-02-26T15:16:55.772Z,34.84
2023-02-26T15:19:22.155Z,35.98
2023-02-26T15:21:48.527Z,33.37
2023-02-26T15:24:14.893Z,33.17
2023-02-26T15:26:41.266Z,33.83
2023-02-26T15:29:07.604Z,33.59
2023-02-26T15:31:34.134Z,33.40
2023-02-26T15:34:00.379Z,33.10
2023-02-26T15:36:26.996Z,32.94
2023-02-26T15:38:53.038Z,35.01
2023-02-26T15:41:19.368Z,36.91
2023-02-26T15:43:45.754Z,36.91
2023-02-26T15:46:12.174Z,36.99
2023-02-26T15:48:38.501Z,38.02
2023-02-26T15:51:04.847Z,38.71
2023-02-26T15:53:31.193Z,39.74
2023-02-26T15:55:57.598Z,40.41
2023-02-26T15:58:24.513Z,40.42
2023-02-26T16:00:51.034Z,40.04
2023-02-26T16:03:17.485Z,40.60
2023-02-26T16:05:43.812Z,41.16
2023-02-26T16:08:10.185Z,41.65
2023-02-26T16:10:36.502Z,42.13
2023-02-26T16:13:02.849Z,42.76
2023-02-26T16:15:29.181Z,43.27
2023-02-26T16:17:55.631Z,43.60
2023-02-26T16:20:21.952Z,44.32
2023-02-26T16:22:48.332Z,44.23
2023-02-26T16:25:14.836Z,44.27
2023-02-26T16:27:41.214Z,44.26
2023-02-26T16:30:07.544Z,44.54
2023-02-26T16:32:34.021Z,44.47
2023-02-26T16:35:00.362Z,44.50
2023-02-26T16:37:26.785Z,44.71
2023-02-26T16:39:53.125Z,44.76
2023-02-26T16:42:19.471Z,44.37
2023-02-26T16:44:45.838Z,43.72
2023-02-26T16:47:12.480Z,42.84
2023-02-26T16:49:38.861Z,42.31
2023-02-26T16:52:05.196Z,38.93
2023-02-26T16:54:32.716Z,39.79
2023-02-26T16:56:59.559Z,40.00
2023-02-26T16:59:25.914Z,40.64
2023-02-26T17:01:52.294Z,40.91
2023-02-26T17:04:19.733Z,40.63
2023-02-26T17:06:46.089Z,40.72
2023-02-26T17:09:12.415Z,40.99
2023-02-26T17:11:39.034Z,41.23
2023-02-26T17:14:05.941Z,41.03
2023-02-26T17:16:32.367Z,41.92
2023-02-26T17:18:58.652Z,42.26
2023-02-26T17:21:25.315Z,42.34
2023-02-26T17:23:51.735Z,42.45
2023-02-26T17:26:18.113Z,42.74
2023-02-26T17:28:44.471Z,43.07
2023-02-26T17:31:14.048Z,43.33
2023-02-26T17:33:40.391Z,44.09
2023-02-26T17:36:06.732Z,44.31
2023-02-26T17:38:33.121Z,44.57
2023-02-26T17:40:59.501Z,44.82
2023-02-26T17:43:26.850Z,44.81
2023-02-26T17:45:53.333Z,44.93
2023-02-26T17:48:19.647Z,45.22
2023-02-26T17:50:45.984Z,45.36
2023-02-26T17:53:12.592Z,45.60
2023-02-26T17:55:39.147Z,45.92
2023-02-26T17:58:05.490Z,46.03
2023-02-26T18:00:31.866Z,45.88
2023-02-26T18:02:58.231Z,45.96
2023-02-26T18:05:24.594Z,46.20
2023-02-26T18:07:50.923Z,46.44
2023-02-26T18:10:17.313Z,46.62
2023-02-26T18:12:43.714Z,46.37
2023-02-26T18:15:10.104Z,46.39
2023-02-26T18:17:36.461Z,46.92
2023-02-26T18:20:02.810Z,46.59
2023-02-26T18:22:29.139Z,46.57
2023-02-26T18:24:55.571Z,46.76
2023-02-26T18:27:21.967Z,47.06
2023-02-26T18:29:48.589Z,47.25
2023-02-26T18:32:15.182Z,47.74
2023-02-26T18:34:41.312Z,48.07
2023-02-26T18:37:07.657Z,48.04
2023-02-26T18:39:34.286Z,48.08
2023-02-26T18:42:00.615Z,48.11
2023-02-26T18:44:26.986Z,48.55
2023-02-26T18:46:53.311Z,48.87
2023-02-26T18:49:19.673Z,48.88
2023-02-26T18:51:46.040Z,49.21
2023-02-26T18:54:12.690Z,49.40
2023-02-26T18:56:39.066Z,49.55
2023-02-26T18:59:05.429Z,49.70
2023-02-26T19:01:32.126Z,49.78
2023-02-26T19:03:58.333Z,49.85
2023-02-26T19:06:24.712Z,49.88
2023-02-26T19:08:51.115Z,50.32
2023-02-26T19:11:17.423Z,50.26
2023-02-26T19:13:45.441Z,50.30
2023-02-26T19:16:10.329Z,50.56
2023-02-26T19:18:36.710Z,50.79
2023-02-26T19:21:03.059Z,50.94
2023-02-26T19:23:29.593Z,51.29
2023-02-26T19:25:59.049Z,51.48
2023-02-26T19:28:26.629Z,51.29
2023-02-26T19:30:53.162Z,51.66
2023-02-26T19:33:20.382Z,51.89
2023-02-26T19:35:48.068Z,52.34
2023-02-26T19:38:16.582Z,52.29
2023-02-26T19:40:43.024Z,52.44
2023-02-26T19:43:09.363Z,52.58
2023-02-26T19:45:35.862Z,52.69
2023-02-26T19:48:02.262Z,52.96
2023-02-26T19:50:28.625Z,53.13
2023-02-26T19:52:55.014Z,53.45
2023-02-26T19:55:21.385Z,53.56
2023-02-26T19:57:49.261Z,53.61
2023-02-26T20:00:14.455Z,53.84
2023-02-26T20:02:40.962Z,54.08
2023-02-26T20:05:07.286Z,54.36
2023-02-26T20:07:33.677Z,54.68
2023-02-26T20:10:00.098Z,55.89
2023-02-26T20:12:26.602Z,54.74
2023-02-26T20:14:52.979Z,54.84
2023-02-26T20:17:19.321Z,55.18
2023-02-26T20:19:45.690Z,55.49
2023-02-26T20:22:13.193Z,55.64
2023-02-26T20:24:39.682Z,56.19
2023-02-26T20:27:06.075Z,56.34
2023-02-26T20:29:32.843Z,56.23
2023-02-26T20:31:59.384Z,56.51
2023-02-26T20:34:25.916Z,56.62
2023-02-26T20:36:54.546Z,56.89
2023-02-26T20:39:18.700Z,56.98
2023-02-26T20:41:45.058Z,57.13
2023-02-26T20:44:11.381Z,57.40
2023-02-26T20:46:37.816Z,57.27
2023-02-26T20:49:04.114Z,57.88
2023-02-26T20:51:30.513Z,57.55
2023-02-26T20:53:57.301Z,58.16
2023-02-26T20:56:23.691Z,58.07
2023-02-26T20:58:50.012Z,58.39
2023-02-26T21:01:16.358Z,58.28
2023-02-26T21:03:42.717Z,58.15
2023-02-26T21:06:09.063Z,58.17
2023-02-26T21:08:35.463Z,58.46
2023-02-26T21:11:02.060Z,58.67
2023-02-26T21:13:28.443Z,58.94
2023-02-26T21:15:57.340Z,59.13
2023-02-26T21:18:23.621Z,59.12
2023-02-26T21:20:49.962Z,59.19
2023-02-26T21:23:16.296Z,59.31
2023-02-26T21:25:42.657Z,59.63
2023-02-26T21:28:09.011Z,59.61
2023-02-26T21:30:35.388Z,60.00
2023-02-26T21:33:01.734Z,60.26
2023-02-26T21:35:28.088Z,59.96
2023-02-26T21:37:54.546Z,59.79
2023-02-26T21:40:20.866Z,59.71
2023-02-26T21:42:47.230Z,59.69
2023-02-26T21:45:13.603Z,59.97
2023-02-26T21:47:39.912Z,59.99
2023-02-26T21:50:06.288Z,59.81
2023-02-26T21:52:32.696Z,59.76
2023-02-26T21:54:59.039Z,59.94
2023-02-26T21:57:25.403Z,60.05
2023-02-26T21:59:51.834Z,59.91
2023-02-26T22:02:18.207Z,60.15
2023-02-26T22:04:44.553Z,60.28
2023-02-26T22:07:10.991Z,60.44
2023-02-26T22:09:37.338Z,60.33
2023-02-26T22:12:03.665Z,60.50
2023-02-26T22:14:30.124Z,60.72
2023-02-26T22:16:56.501Z,60.70
2023-02-26T22:19:22.856Z,60.92
2023-02-26T22:21:49.221Z,61.14
2023-02-26T22:24:15.594Z,60.93
2023-02-26T22:26:41.926Z,60.88
2023-02-26T22:29:08.321Z,61.39
2023-02-26T22:31:34.781Z,61.37
2023-02-26T22:34:01.075Z,61.46
2023-02-26T22:36:27.462Z,61.25
2023-02-26T22:38:53.744Z,61.19
2023-02-26T22:41:20.128Z,61.88
2023-02-26T22:43:46.466Z,61.24
2023-02-26T22:46:12.912Z,61.41
2023-02-26T22:48:39.240Z,60.97
2023-02-26T22:51:05.591Z,60.98
2023-02-26T22:53:31.932Z,60.44
2023-02-26T22:55:58.315Z,60.63
2023-02-26T22:58:24.630Z,60.64
2023-02-26T23:00:51.022Z,61.05
2023-02-26T23:03:17.358Z,61.00
2023-02-26T23:05:43.755Z,61.27
2023-02-26T23:08:10.091Z,61.43
2023-02-26T23:10:36.506Z,61.31
2023-02-26T23:13:02.828Z,61.51
2023-02-26T23:15:29.232Z,61.49
2023-02-26T23:17:55.592Z,61.40
2023-02-26T23:20:21.961Z,61.74
2023-02-26T23:22:48.308Z,61.58
2023-02-26T23:25:14.648Z,61.15
2023-02-26T23:27:41.004Z,61.41
2023-02-26T23:30:07.322Z,61.45
2023-02-26T23:32:33.736Z,61.84
2023-02-26T23:35:00.026Z,61.44
2023-02-26T23:37:26.411Z,61.23
2023-02-26T23:39:52.885Z,61.20
2023-02-26T23:42:19.202Z,61.31
2023-02-26T23:44:45.585Z,61.01
2023-02-26T23:47:11.914Z,61.29
2023-02-26T23:49:38.255Z,61.60
2023-02-26T23:52:04.577Z,62.39
2023-02-26T23:54:30.943Z,62.35
2023-02-26T23:56:57.263Z,62.33
2023-02-26T23:59:23.610Z,62.78
